sensor_id;sensor_type;location;lat;lon;timestamp;P1;durP1;ratioP1;P2;durP2;ratioP2
3052;SDS011;1536;51.098;6.414;2022-12-20T00:02:06;2.70;;;2.03;;
3052;SDS011;1536;51.098;6.414;2022-12-20T00:04:33;2.00;;;1.80;;
3052;SDS011;1536;51.098;6.414;2022-12-20T00:07:00;4.65;;;1.80;;
3052;SDS011;1536;51.098;6.414;2022-12-20T00:09:27;7.07;;;2.15;;
3052;SDS011;1536;51.098;6.414;2022-12-20T00:11:55;4.50;;;1.70;;
3052;SDS011;1536;51.098;6.414;2022-12-20T00:14:22;2.20;;;1.50;;
3052;SDS011;1536;51.098;6.414;2022-12-20T00:16:48;1.87;;;1.47;;
3052;SDS011;1536;51.098;6.414;2022-12-20T00:19:15;3.63;;;2.03;;
3052;SDS011;1536;51.098;6.414;2022-12-20T00:21:42;3.85;;;2.63;;
3052;SDS011;1536;51.098;6.414;2022-12-20T00:24:09;1.70;;;1.60;;
3052;SDS011;1536;51.098;6.414;2022-12-20T00:26:35;2.37;;;1.67;;
3052;SDS011;1536;51.098;6.414;2022-12-20T00:29:04;3.28;;;1.90;;
3052;SDS011;1536;51.098;6.414;2022-12-20T00:31:31;3.10;;;1.70;;
3052;SDS011;1536;51.098;6.414;2022-12-20T00:33:59;2.90;;;1.80;;
3052;SDS011;1536;51.098;6.414;2022-12-20T00:36:27;2.03;;;1.40;;
3052;SDS011;1536;51.098;6.414;2022-12-20T00:38:55;2.85;;;1.52;;
3052;SDS011;1536;51.098;6.414;2022-12-20T00:41:25;4.00;;;1.67;;
3052;SDS011;1536;51.098;6.414;2022-12-20T00:43:52;3.20;;;2.00;;
3052;SDS011;1536;51.098;6.414;2022-12-20T00:46:20;4.40;;;2.80;;
3052;SDS011;1536;51.098;6.414;2022-12-20T00:48:48;3.13;;;1.93;;
3052;SDS011;1536;51.098;6.414;2022-12-20T00:51:16;4.03;;;1.70;;
3052;SDS011;1536;51.098;6.414;2022-12-20T00:53:44;2.55;;;2.00;;
3052;SDS011;1536;51.098;6.414;2022-12-20T00:56:11;3.00;;;1.90;;
3052;SDS011;1536;51.098;6.414;2022-12-20T00:58:40;2.50;;;1.87;;
3052;SDS011;1536;51.098;6.414;2022-12-20T01:01:13;2.60;;;2.03;;
3052;SDS011;1536;51.098;6.414;2022-12-20T01:03:43;2.83;;;2.10;;
3052;SDS011;1536;51.098;6.414;2022-12-20T01:06:09;4.80;;;2.20;;
3052;SDS011;1536;51.098;6.414;2022-12-20T01:08:36;3.25;;;2.30;;
3052;SDS011;1536;51.098;6.414;2022-12-20T01:11:04;3.97;;;2.57;;
3052;SDS011;1536;51.098;6.414;2022-12-20T01:13:33;4.60;;;2.22;;
3052;SDS011;1536;51.098;6.414;2022-12-20T01:16:03;6.20;;;2.30;;
3052;SDS011;1536;51.098;6.414;2022-12-20T01:18:31;2.30;;;2.10;;
3052;SDS011;1536;51.098;6.414;2022-12-20T01:21:03;2.33;;;1.70;;
3052;SDS011;1536;51.098;6.414;2022-12-20T01:23:30;4.80;;;2.03;;
3052;SDS011;1536;51.098;6.414;2022-12-20T01:25:58;3.63;;;2.00;;
3052;SDS011;1536;51.098;6.414;2022-12-20T01:28:26;2.90;;;1.70;;
3052;SDS011;1536;51.098;6.414;2022-12-20T01:30:53;2.33;;;2.00;;
3052;SDS011;1536;51.098;6.414;2022-12-20T01:33:20;4.07;;;2.20;;
3052;SDS011;1536;51.098;6.414;2022-12-20T01:35:54;3.03;;;2.40;;
3052;SDS011;1536;51.098;6.414;2022-12-20T01:38:23;4.23;;;2.53;;
3052;SDS011;1536;51.098;6.414;2022-12-20T01:40:50;5.83;;;2.97;;
3052;SDS011;1536;51.098;6.414;2022-12-20T01:43:18;3.03;;;2.50;;
3052;SDS011;1536;51.098;6.414;2022-12-20T01:45:45;3.13;;;2.22;;
3052;SDS011;1536;51.098;6.414;2022-12-20T01:48:13;3.03;;;2.50;;
3052;SDS011;1536;51.098;6.414;2022-12-20T01:50:42;2.50;;;2.30;;
3052;SDS011;1536;51.098;6.414;2022-12-20T01:53:09;3.70;;;2.20;;
3052;SDS011;1536;51.098;6.414;2022-12-20T01:55:38;2.47;;;2.10;;
3052;SDS011;1536;51.098;6.414;2022-12-20T01:58:05;3.10;;;2.57;;
3052;SDS011;1536;51.098;6.414;2022-12-20T02:00:35;3.97;;;2.13;;
3052;SDS011;1536;51.098;6.414;2022-12-20T02:03:03;3.43;;;2.03;;
3052;SDS011;1536;51.098;6.414;2022-12-20T02:05:33;3.35;;;2.10;;
3052;SDS011;1536;51.098;6.414;2022-12-20T02:08:00;3.83;;;2.43;;
3052;SDS011;1536;51.098;6.414;2022-12-20T02:10:30;5.03;;;2.00;;
3052;SDS011;1536;51.098;6.414;2022-12-20T02:13:11;2.27;;;2.07;;
3052;SDS011;1536;51.098;6.414;2022-12-20T02:15:48;2.58;;;2.38;;
3052;SDS011;1536;51.098;6.414;2022-12-20T02:18:20;2.90;;;2.37;;
3052;SDS011;1536;51.098;6.414;2022-12-20T02:21:13;2.65;;;2.45;;
3052;SDS011;1536;51.098;6.414;2022-12-20T02:23:51;2.33;;;2.13;;
3052;SDS011;1536;51.098;6.414;2022-12-20T02:26:43;5.23;;;1.90;;
3052;SDS011;1536;51.098;6.414;2022-12-20T02:29:29;2.87;;;2.07;;
3052;SDS011;1536;51.098;6.414;2022-12-20T02:32:02;3.00;;;2.28;;
3052;SDS011;1536;51.098;6.414;2022-12-20T02:34:34;2.63;;;2.20;;
3052;SDS011;1536;51.098;6.414;2022-12-20T02:37:02;2.90;;;2.35;;
3052;SDS011;1536;51.098;6.414;2022-12-20T02:39:29;5.63;;;2.28;;
3052;SDS011;1536;51.098;6.414;2022-12-20T02:41:59;5.00;;;2.00;;
3052;SDS011;1536;51.098;6.414;2022-12-20T02:44:29;2.63;;;2.00;;
3052;SDS011;1536;51.098;6.414;2022-12-20T02:47:18;2.70;;;2.07;;
3052;SDS011;1536;51.098;6.414;2022-12-20T02:49:50;4.43;;;2.37;;
3052;SDS011;1536;51.098;6.414;2022-12-20T02:52:19;5.45;;;3.25;;
3052;SDS011;1536;51.098;6.414;2022-12-20T02:54:51;4.45;;;2.60;;
3052;SDS011;1536;51.098;6.414;2022-12-20T02:57:19;3.90;;;2.50;;
3052;SDS011;1536;51.098;6.414;2022-12-20T02:59:53;4.78;;;2.33;;
3052;SDS011;1536;51.098;6.414;2022-12-20T03:02:24;6.70;;;3.38;;
3052;SDS011;1536;51.098;6.414;2022-12-20T03:04:51;3.45;;;2.95;;
3052;SDS011;1536;51.098;6.414;2022-12-20T03:07:19;7.47;;;2.90;;
3052;SDS011;1536;51.098;6.414;2022-12-20T03:09:46;4.97;;;2.40;;
3052;SDS011;1536;51.098;6.414;2022-12-20T03:12:13;2.97;;;2.70;;
3052;SDS011;1536;51.098;6.414;2022-12-20T03:14:41;3.78;;;2.80;;
3052;SDS011;1536;51.098;6.414;2022-12-20T03:17:08;3.22;;;2.92;;
3052;SDS011;1536;51.098;6.414;2022-12-20T03:19:36;5.03;;;2.80;;
3052;SDS011;1536;51.098;6.414;2022-12-20T03:22:02;6.10;;;2.90;;
3052;SDS011;1536;51.098;6.414;2022-12-20T03:24:29;3.38;;;2.70;;
3052;SDS011;1536;51.098;6.414;2022-12-20T03:26:56;3.08;;;2.78;;
3052;SDS011;1536;51.098;6.414;2022-12-20T03:29:23;6.55;;;2.85;;
3052;SDS011;1536;51.098;6.414;2022-12-20T03:31:49;3.85;;;2.45;;
3052;SDS011;1536;51.098;6.414;2022-12-20T03:34:16;4.95;;;2.85;;
3052;SDS011;1536;51.098;6.414;2022-12-20T03:36:44;3.10;;;2.47;;
3052;SDS011;1536;51.098;6.414;2022-12-20T03:39:11;5.18;;;2.88;;
3052;SDS011;1536;51.098;6.414;2022-12-20T03:41:38;5.17;;;2.73;;
3052;SDS011;1536;51.098;6.414;2022-12-20T03:44:04;5.35;;;2.95;;
3052;SDS011;1536;51.098;6.414;2022-12-20T03:46:31;3.08;;;2.78;;
3052;SDS011;1536;51.098;6.414;2022-12-20T03:48:58;4.07;;;3.60;;
3052;SDS011;1536;51.098;6.414;2022-12-20T03:51:25;3.95;;;3.35;;
3052;SDS011;1536;51.098;6.414;2022-12-20T03:53:53;4.85;;;2.95;;
3052;SDS011;1536;51.098;6.414;2022-12-20T03:56:19;3.45;;;3.15;;
3052;SDS011;1536;51.098;6.414;2022-12-20T03:58:46;6.68;;;3.20;;
3052;SDS011;1536;51.098;6.414;2022-12-20T04:01:17;5.20;;;2.97;;
3052;SDS011;1536;51.098;6.414;2022-12-20T04:03:48;4.57;;;2.80;;
3052;SDS011;1536;51.098;6.414;2022-12-20T04:06:15;5.68;;;3.60;;
3052;SDS011;1536;51.098;6.414;2022-12-20T04:08:42;3.05;;;2.75;;
3052;SDS011;1536;51.098;6.414;2022-12-20T04:11:10;6.38;;;2.95;;
3052;SDS011;1536;51.098;6.414;2022-12-20T04:13:43;4.70;;;3.17;;
3052;SDS011;1536;51.098;6.414;2022-12-20T04:16:11;3.70;;;2.65;;
3052;SDS011;1536;51.098;6.414;2022-12-20T04:18:39;3.20;;;2.65;;
3052;SDS011;1536;51.098;6.414;2022-12-20T04:21:06;3.42;;;3.08;;
3052;SDS011;1536;51.098;6.414;2022-12-20T04:23:34;2.60;;;2.40;;
3052;SDS011;1536;51.098;6.414;2022-12-20T04:26:01;4.05;;;2.83;;
3052;SDS011;1536;51.098;6.414;2022-12-20T04:28:31;3.63;;;2.72;;
3052;SDS011;1536;51.098;6.414;2022-12-20T04:30:59;3.40;;;2.58;;
3052;SDS011;1536;51.098;6.414;2022-12-20T04:33:26;4.80;;;3.22;;
3052;SDS011;1536;51.098;6.414;2022-12-20T04:35:54;5.22;;;2.35;;
3052;SDS011;1536;51.098;6.414;2022-12-20T04:38:21;6.50;;;2.83;;
3052;SDS011;1536;51.098;6.414;2022-12-20T04:40:48;4.45;;;3.05;;
3052;SDS011;1536;51.098;6.414;2022-12-20T04:43:15;5.05;;;3.13;;
3052;SDS011;1536;51.098;6.414;2022-12-20T04:45:45;3.05;;;2.70;;
3052;SDS011;1536;51.098;6.414;2022-12-20T04:48:13;3.28;;;2.97;;
3052;SDS011;1536;51.098;6.414;2022-12-20T04:50:39;4.82;;;3.20;;
3052;SDS011;1536;51.098;6.414;2022-12-20T04:53:07;6.95;;;3.88;;
3052;SDS011;1536;51.098;6.414;2022-12-20T04:55:53;6.90;;;4.10;;
3052;SDS011;1536;51.098;6.414;2022-12-20T04:58:20;8.93;;;4.15;;
3052;SDS011;1536;51.098;6.414;2022-12-20T05:00:48;5.55;;;4.32;;
3052;SDS011;1536;51.098;6.414;2022-12-20T05:03:16;7.93;;;4.68;;
3052;SDS011;1536;51.098;6.414;2022-12-20T05:05:43;7.93;;;4.77;;
3052;SDS011;1536;51.098;6.414;2022-12-20T05:08:09;8.68;;;3.83;;
3052;SDS011;1536;51.098;6.414;2022-12-20T05:10:36;8.00;;;4.20;;
3052;SDS011;1536;51.098;6.414;2022-12-20T05:13:03;8.75;;;3.60;;
3052;SDS011;1536;51.098;6.414;2022-12-20T05:15:29;5.53;;;3.30;;
3052;SDS011;1536;51.098;6.414;2022-12-20T05:17:58;3.85;;;3.20;;
3052;SDS011;1536;51.098;6.414;2022-12-20T05:20:26;4.47;;;3.08;;
3052;SDS011;1536;51.098;6.414;2022-12-20T05:22:53;5.20;;;3.08;;
3052;SDS011;1536;51.098;6.414;2022-12-20T05:25:37;3.75;;;2.95;;
3052;SDS011;1536;51.098;6.414;2022-12-20T05:28:22;4.70;;;2.97;;
3052;SDS011;1536;51.098;6.414;2022-12-20T05:30:49;3.95;;;3.25;;
3052;SDS011;1536;51.098;6.414;2022-12-20T05:33:17;3.92;;;2.72;;
3052;SDS011;1536;51.098;6.414;2022-12-20T05:35:44;4.97;;;2.58;;
3052;SDS011;1536;51.098;6.414;2022-12-20T05:38:11;8.52;;;3.03;;
3052;SDS011;1536;51.098;6.414;2022-12-20T05:40:38;5.43;;;2.78;;
3052;SDS011;1536;51.098;6.414;2022-12-20T05:43:05;7.40;;;3.65;;
3052;SDS011;1536;51.098;6.414;2022-12-20T05:45:32;7.10;;;3.97;;
3052;SDS011;1536;51.098;6.414;2022-12-20T05:47:59;8.90;;;2.92;;
3052;SDS011;1536;51.098;6.414;2022-12-20T05:50:27;9.02;;;3.70;;
3052;SDS011;1536;51.098;6.414;2022-12-20T05:52:54;8.85;;;4.07;;
3052;SDS011;1536;51.098;6.414;2022-12-20T05:55:21;3.60;;;3.00;;
3052;SDS011;1536;51.098;6.414;2022-12-20T05:57:47;5.82;;;3.10;;
3052;SDS011;1536;51.098;6.414;2022-12-20T06:00:14;9.20;;;3.30;;
3052;SDS011;1536;51.098;6.414;2022-12-20T06:02:41;7.72;;;3.13;;
3052;SDS011;1536;51.098;6.414;2022-12-20T06:05:08;10.68;;;3.50;;
3052;SDS011;1536;51.098;6.414;2022-12-20T06:07:36;2.72;;;2.53;;
3052;SDS011;1536;51.098;6.414;2022-12-20T06:10:03;7.95;;;2.70;;
3052;SDS011;1536;51.098;6.414;2022-12-20T06:12:31;8.93;;;2.78;;
3052;SDS011;1536;51.098;6.414;2022-12-20T06:14:58;6.78;;;3.05;;
3052;SDS011;1536;51.098;6.414;2022-12-20T06:17:25;4.53;;;3.85;;
3052;SDS011;1536;51.098;6.414;2022-12-20T06:19:52;8.75;;;3.00;;
3052;SDS011;1536;51.098;6.414;2022-12-20T06:22:19;4.32;;;2.50;;
3052;SDS011;1536;51.098;6.414;2022-12-20T06:24:47;9.93;;;2.75;;
3052;SDS011;1536;51.098;6.414;2022-12-20T06:27:13;7.30;;;2.60;;
3052;SDS011;1536;51.098;6.414;2022-12-20T06:29:40;3.40;;;3.10;;
3052;SDS011;1536;51.098;6.414;2022-12-20T06:32:13;6.75;;;3.35;;
3052;SDS011;1536;51.098;6.414;2022-12-20T06:34:40;3.20;;;2.75;;
3052;SDS011;1536;51.098;6.414;2022-12-20T06:37:06;9.13;;;3.20;;
3052;SDS011;1536;51.098;6.414;2022-12-20T06:39:33;5.93;;;2.50;;
3052;SDS011;1536;51.098;6.414;2022-12-20T06:42:01;5.07;;;2.85;;
3052;SDS011;1536;51.098;6.414;2022-12-20T06:44:28;5.78;;;2.20;;
3052;SDS011;1536;51.098;6.414;2022-12-20T06:46:55;5.28;;;2.90;;
3052;SDS011;1536;51.098;6.414;2022-12-20T06:49:22;8.80;;;2.58;;
3052;SDS011;1536;51.098;6.414;2022-12-20T06:51:48;6.38;;;2.60;;
3052;SDS011;1536;51.098;6.414;2022-12-20T06:54:15;7.47;;;3.28;;
3052;SDS011;1536;51.098;6.414;2022-12-20T06:56:42;7.53;;;2.70;;
3052;SDS011;1536;51.098;6.414;2022-12-20T06:59:10;4.20;;;2.75;;
3052;SDS011;1536;51.098;6.414;2022-12-20T07:01:37;3.42;;;2.58;;
3052;SDS011;1536;51.098;6.414;2022-12-20T07:04:03;8.15;;;3.10;;
3052;SDS011;1536;51.098;6.414;2022-12-20T07:06:30;12.60;;;3.78;;
3052;SDS011;1536;51.098;6.414;2022-12-20T07:08:57;7.87;;;3.07;;
3052;SDS011;1536;51.098;6.414;2022-12-20T07:11:24;5.57;;;3.10;;
3052;SDS011;1536;51.098;6.414;2022-12-20T07:13:53;5.45;;;2.97;;
3052;SDS011;1536;51.098;6.414;2022-12-20T07:16:22;5.40;;;2.70;;
3052;SDS011;1536;51.098;6.414;2022-12-20T07:18:49;4.30;;;2.00;;
3052;SDS011;1536;51.098;6.414;2022-12-20T07:21:16;6.03;;;3.40;;
3052;SDS011;1536;51.098;6.414;2022-12-20T07:23:43;7.55;;;2.10;;
3052;SDS011;1536;51.098;6.414;2022-12-20T07:26:11;11.85;;;2.63;;
3052;SDS011;1536;51.098;6.414;2022-12-20T07:28:38;4.25;;;2.95;;
3052;SDS011;1536;51.098;6.414;2022-12-20T07:31:05;5.53;;;2.85;;
3052;SDS011;1536;51.098;6.414;2022-12-20T07:33:33;5.35;;;3.00;;
3052;SDS011;1536;51.098;6.414;2022-12-20T07:36:01;5.55;;;3.05;;
3052;SDS011;1536;51.098;6.414;2022-12-20T07:38:28;6.20;;;2.90;;
3052;SDS011;1536;51.098;6.414;2022-12-20T07:40:55;8.15;;;2.90;;
3052;SDS011;1536;51.098;6.414;2022-12-20T07:43:22;7.15;;;2.67;;
3052;SDS011;1536;51.098;6.414;2022-12-20T07:45:52;5.60;;;2.72;;
3052;SDS011;1536;51.098;6.414;2022-12-20T07:48:20;5.72;;;2.92;;
3052;SDS011;1536;51.098;6.414;2022-12-20T07:50:49;4.93;;;2.90;;
3052;SDS011;1536;51.098;6.414;2022-12-20T07:53:17;4.60;;;2.50;;
3052;SDS011;1536;51.098;6.414;2022-12-20T07:55:44;5.10;;;3.03;;
3052;SDS011;1536;51.098;6.414;2022-12-20T07:58:11;3.33;;;2.70;;
3052;SDS011;1536;51.098;6.414;2022-12-20T08:00:38;3.78;;;2.90;;
3052;SDS011;1536;51.098;6.414;2022-12-20T08:03:06;3.67;;;2.92;;
3052;SDS011;1536;51.098;6.414;2022-12-20T08:05:38;7.90;;;3.30;;
3052;SDS011;1536;51.098;6.414;2022-12-20T08:08:10;10.38;;;3.58;;
3052;SDS011;1536;51.098;6.414;2022-12-20T08:10:36;6.88;;;3.53;;
3052;SDS011;1536;51.098;6.414;2022-12-20T08:13:05;9.13;;;3.40;;
3052;SDS011;1536;51.098;6.414;2022-12-20T08:15:33;4.13;;;3.30;;
3052;SDS011;1536;51.098;6.414;2022-12-20T08:18:00;11.65;;;4.45;;
3052;SDS011;1536;51.098;6.414;2022-12-20T08:20:28;5.63;;;3.17;;
3052;SDS011;1536;51.098;6.414;2022-12-20T08:22:54;6.70;;;2.80;;
3052;SDS011;1536;51.098;6.414;2022-12-20T08:25:23;8.32;;;3.22;;
3052;SDS011;1536;51.098;6.414;2022-12-20T08:27:50;4.60;;;2.90;;
3052;SDS011;1536;51.098;6.414;2022-12-20T08:30:17;2.85;;;2.50;;
3052;SDS011;1536;51.098;6.414;2022-12-20T08:32:44;4.07;;;2.88;;
3052;SDS011;1536;51.098;6.414;2022-12-20T08:35:11;3.55;;;2.38;;
3052;SDS011;1536;51.098;6.414;2022-12-20T08:37:38;3.90;;;2.40;;
3052;SDS011;1536;51.098;6.414;2022-12-20T08:40:05;11.13;;;2.35;;
3052;SDS011;1536;51.098;6.414;2022-12-20T08:42:34;5.65;;;2.20;;
3052;SDS011;1536;51.098;6.414;2022-12-20T08:45:01;3.05;;;2.30;;
3052;SDS011;1536;51.098;6.414;2022-12-20T08:47:27;11.25;;;2.25;;
3052;SDS011;1536;51.098;6.414;2022-12-20T08:49:54;5.90;;;2.58;;
3052;SDS011;1536;51.098;6.414;2022-12-20T08:52:21;3.00;;;2.38;;
3052;SDS011;1536;51.098;6.414;2022-12-20T08:54:48;9.25;;;2.92;;
3052;SDS011;1536;51.098;6.414;2022-12-20T08:57:14;6.60;;;3.13;;
3052;SDS011;1536;51.098;6.414;2022-12-20T08:59:42;4.15;;;2.45;;
3052;SDS011;1536;51.098;6.414;2022-12-20T09:02:09;5.50;;;3.10;;
3052;SDS011;1536;51.098;6.414;2022-12-20T09:04:36;5.53;;;2.30;;
3052;SDS011;1536;51.098;6.414;2022-12-20T09:07:02;10.43;;;2.40;;
3052;SDS011;1536;51.098;6.414;2022-12-20T09:09:29;3.95;;;2.20;;
3052;SDS011;1536;51.098;6.414;2022-12-20T09:11:56;5.10;;;3.45;;
3052;SDS011;1536;51.098;6.414;2022-12-20T09:14:23;7.25;;;3.50;;
3052;SDS011;1536;51.098;6.414;2022-12-20T09:16:51;5.55;;;4.57;;
3052;SDS011;1536;51.098;6.414;2022-12-20T09:19:17;3.35;;;2.95;;
3052;SDS011;1536;51.098;6.414;2022-12-20T09:21:44;4.80;;;2.83;;
3052;SDS011;1536;51.098;6.414;2022-12-20T09:24:11;4.50;;;2.50;;
3052;SDS011;1536;51.098;6.414;2022-12-20T09:26:38;5.25;;;2.35;;
3052;SDS011;1536;51.098;6.414;2022-12-20T09:29:05;5.25;;;2.65;;
3052;SDS011;1536;51.098;6.414;2022-12-20T09:31:32;4.95;;;2.80;;
3052;SDS011;1536;51.098;6.414;2022-12-20T09:34:00;3.35;;;2.35;;
3052;SDS011;1536;51.098;6.414;2022-12-20T09:36:28;2.67;;;2.47;;
3052;SDS011;1536;51.098;6.414;2022-12-20T09:38:55;3.70;;;2.17;;
3052;SDS011;1536;51.098;6.414;2022-12-20T09:41:27;6.10;;;3.25;;
3052;SDS011;1536;51.098;6.414;2022-12-20T09:43:56;4.20;;;3.30;;
3052;SDS011;1536;51.098;6.414;2022-12-20T09:46:25;3.20;;;2.38;;
3052;SDS011;1536;51.098;6.414;2022-12-20T09:48:52;2.72;;;1.90;;
3052;SDS011;1536;51.098;6.414;2022-12-20T09:51:32;2.47;;;1.80;;
3052;SDS011;1536;51.098;6.414;2022-12-20T09:54:11;13.13;;;3.27;;
3052;SDS011;1536;51.098;6.414;2022-12-20T09:56:50;5.53;;;2.47;;
3052;SDS011;1536;51.098;6.414;2022-12-20T09:59:22;6.57;;;2.67;;
3052;SDS011;1536;51.098;6.414;2022-12-20T10:01:49;2.70;;;2.25;;
3052;SDS011;1536;51.098;6.414;2022-12-20T10:04:19;2.65;;;2.20;;
3052;SDS011;1536;51.098;6.414;2022-12-20T10:06:52;7.03;;;3.05;;
3052;SDS011;1536;51.098;6.414;2022-12-20T10:09:35;3.00;;;2.70;;
3052;SDS011;1536;51.098;6.414;2022-12-20T10:12:14;4.90;;;3.80;;
3052;SDS011;1536;51.098;6.414;2022-12-20T10:14:54;6.68;;;3.40;;
3052;SDS011;1536;51.098;6.414;2022-12-20T10:17:32;3.95;;;3.50;;
3052;SDS011;1536;51.098;6.414;2022-12-20T10:20:11;3.60;;;3.30;;
3052;SDS011;1536;51.098;6.414;2022-12-20T10:22:49;5.10;;;2.93;;
3052;SDS011;1536;51.098;6.414;2022-12-20T10:25:20;3.10;;;2.57;;
3052;SDS011;1536;51.098;6.414;2022-12-20T10:27:48;3.65;;;2.08;;
3052;SDS011;1536;51.098;6.414;2022-12-20T10:30:19;5.10;;;2.67;;
3052;SDS011;1536;51.098;6.414;2022-12-20T10:32:49;4.47;;;2.40;;
3052;SDS011;1536;51.098;6.414;2022-12-20T10:35:24;4.30;;;2.30;;
3052;SDS011;1536;51.098;6.414;2022-12-20T10:37:58;3.35;;;1.90;;
3052;SDS011;1536;51.098;6.414;2022-12-20T10:40:27;4.00;;;2.00;;
3052;SDS011;1536;51.098;6.414;2022-12-20T10:42:55;3.13;;;1.98;;
3052;SDS011;1536;51.098;6.414;2022-12-20T10:45:26;3.73;;;2.30;;
3052;SDS011;1536;51.098;6.414;2022-12-20T10:48:00;5.25;;;2.75;;
3052;SDS011;1536;51.098;6.414;2022-12-20T10:50:28;4.23;;;2.20;;
3052;SDS011;1536;51.098;6.414;2022-12-20T10:55:44;4.73;;;2.20;;
3052;SDS011;1536;51.098;6.414;2022-12-20T10:58:12;5.07;;;2.47;;
3052;SDS011;1536;51.098;6.414;2022-12-20T11:00:41;7.53;;;2.47;;
3052;SDS011;1536;51.098;6.414;2022-12-20T11:03:11;2.50;;;2.13;;
3052;SDS011;1536;51.098;6.414;2022-12-20T11:05:40;4.80;;;2.10;;
3052;SDS011;1536;51.098;6.414;2022-12-20T11:08:19;2.90;;;2.47;;
3052;SDS011;1536;51.098;6.414;2022-12-20T11:10:48;5.67;;;2.27;;
3052;SDS011;1536;51.098;6.414;2022-12-20T11:13:19;2.07;;;1.80;;
3052;SDS011;1536;51.098;6.414;2022-12-20T11:15:49;2.97;;;2.30;;
3052;SDS011;1536;51.098;6.414;2022-12-20T11:18:22;2.83;;;2.30;;
3052;SDS011;1536;51.098;6.414;2022-12-20T11:20:59;2.83;;;2.20;;
3052;SDS011;1536;51.098;6.414;2022-12-20T11:23:38;3.20;;;2.10;;
3052;SDS011;1536;51.098;6.414;2022-12-20T11:26:12;3.00;;;2.10;;
3052;SDS011;1536;51.098;6.414;2022-12-20T11:28:57;4.75;;;2.70;;
3052;SDS011;1536;51.098;6.414;2022-12-20T11:31:35;5.67;;;2.93;;
3052;SDS011;1536;51.098;6.414;2022-12-20T11:34:21;4.40;;;3.47;;
3052;SDS011;1536;51.098;6.414;2022-12-20T11:37:08;4.87;;;2.80;;
3052;SDS011;1536;51.098;6.414;2022-12-20T11:39:47;2.80;;;2.30;;
3052;SDS011;1536;51.098;6.414;2022-12-20T11:42:25;2.70;;;2.30;;
3052;SDS011;1536;51.098;6.414;2022-12-20T11:45:14;4.03;;;2.30;;
3052;SDS011;1536;51.098;6.414;2022-12-20T11:50:52;8.20;;;3.77;;
3052;SDS011;1536;51.098;6.414;2022-12-20T11:53:31;3.80;;;2.20;;
3052;SDS011;1536;51.098;6.414;2022-12-20T11:58:49;3.20;;;2.90;;
3052;SDS011;1536;51.098;6.414;2022-12-20T12:01:20;6.60;;;2.30;;
3052;SDS011;1536;51.098;6.414;2022-12-20T12:03:56;4.50;;;2.07;;
3052;SDS011;1536;51.098;6.414;2022-12-20T12:06:30;3.90;;;2.03;;
3052;SDS011;1536;51.098;6.414;2022-12-20T12:09:05;5.13;;;2.10;;
3052;SDS011;1536;51.098;6.414;2022-12-20T12:11:41;3.00;;;2.33;;
3052;SDS011;1536;51.098;6.414;2022-12-20T12:14:15;4.63;;;2.63;;
3052;SDS011;1536;51.098;6.414;2022-12-20T12:16:48;3.00;;;2.47;;
3052;SDS011;1536;51.098;6.414;2022-12-20T12:19:17;4.80;;;2.60;;
3052;SDS011;1536;51.098;6.414;2022-12-20T12:21:45;2.47;;;2.00;;
3052;SDS011;1536;51.098;6.414;2022-12-20T12:24:17;5.23;;;3.30;;
3052;SDS011;1536;51.098;6.414;2022-12-20T12:26:51;3.00;;;2.10;;
3052;SDS011;1536;51.098;6.414;2022-12-20T12:29:18;5.80;;;2.70;;
3052;SDS011;1536;51.098;6.414;2022-12-20T12:31:49;2.80;;;2.20;;
3052;SDS011;1536;51.098;6.414;2022-12-20T12:34:33;4.17;;;2.73;;
3052;SDS011;1536;51.098;6.414;2022-12-20T12:37:15;4.37;;;2.30;;
3052;SDS011;1536;51.098;6.414;2022-12-20T12:43:28;6.03;;;2.20;;
3052;SDS011;1536;51.098;6.414;2022-12-20T12:46:11;4.87;;;2.50;;
3052;SDS011;1536;51.098;6.414;2022-12-20T12:48:41;2.67;;;2.47;;
3052;SDS011;1536;51.098;6.414;2022-12-20T12:51:11;3.27;;;2.00;;
3052;SDS011;1536;51.098;6.414;2022-12-20T12:53:41;4.20;;;2.83;;
3052;SDS011;1536;51.098;6.414;2022-12-20T13:05:33;3.87;;;3.03;;
3052;SDS011;1536;51.098;6.414;2022-12-20T13:08:01;3.43;;;2.70;;
3052;SDS011;1536;51.098;6.414;2022-12-20T13:13:24;10.70;;;3.60;;
3052;SDS011;1536;51.098;6.414;2022-12-20T13:15:52;16.50;;;2.80;;
3052;SDS011;1536;51.098;6.414;2022-12-20T13:18:56;4.17;;;3.30;;
3052;SDS011;1536;51.098;6.414;2022-12-20T13:21:35;4.60;;;2.77;;
3052;SDS011;1536;51.098;6.414;2022-12-20T13:27:28;4.20;;;2.40;;
3052;SDS011;1536;51.098;6.414;2022-12-20T13:32:58;2.80;;;2.17;;
3052;SDS011;1536;51.098;6.414;2022-12-20T13:35:57;5.50;;;2.70;;
3052;SDS011;1536;51.098;6.414;2022-12-20T13:38:40;4.17;;;2.13;;
3052;SDS011;1536;51.098;6.414;2022-12-20T13:41:24;4.70;;;2.70;;
3052;SDS011;1536;51.098;6.414;2022-12-20T13:44:09;4.13;;;3.03;;
3052;SDS011;1536;51.098;6.414;2022-12-20T13:46:48;3.90;;;2.70;;
3052;SDS011;1536;51.098;6.414;2022-12-20T13:49:21;2.90;;;2.60;;
3052;SDS011;1536;51.098;6.414;2022-12-20T13:54:40;2.50;;;2.13;;
3052;SDS011;1536;51.098;6.414;2022-12-20T13:57:13;2.73;;;2.43;;
3052;SDS011;1536;51.098;6.414;2022-12-20T13:59:44;4.27;;;2.57;;
3052;SDS011;1536;51.098;6.414;2022-12-20T14:02:16;4.43;;;2.40;;
3052;SDS011;1536;51.098;6.414;2022-12-20T14:04:49;2.37;;;2.17;;
3052;SDS011;1536;51.098;6.414;2022-12-20T14:07:22;6.40;;;2.17;;
3052;SDS011;1536;51.098;6.414;2022-12-20T14:09:54;4.10;;;2.40;;
3052;SDS011;1536;51.098;6.414;2022-12-20T14:12:22;4.87;;;2.40;;
3052;SDS011;1536;51.098;6.414;2022-12-20T14:14:49;3.70;;;2.30;;
3052;SDS011;1536;51.098;6.414;2022-12-20T14:17:16;3.97;;;2.73;;
3052;SDS011;1536;51.098;6.414;2022-12-20T14:19:47;5.05;;;2.63;;
3052;SDS011;1536;51.098;6.414;2022-12-20T14:22:32;4.30;;;2.17;;
3052;SDS011;1536;51.098;6.414;2022-12-20T14:25:00;4.30;;;2.53;;
3052;SDS011;1536;51.098;6.414;2022-12-20T14:27:32;3.07;;;1.87;;
3052;SDS011;1536;51.098;6.414;2022-12-20T14:30:01;3.13;;;2.33;;
3052;SDS011;1536;51.098;6.414;2022-12-20T14:32:28;5.30;;;2.77;;
3052;SDS011;1536;51.098;6.414;2022-12-20T14:34:55;3.87;;;2.73;;
3052;SDS011;1536;51.098;6.414;2022-12-20T14:37:29;5.87;;;2.50;;
3052;SDS011;1536;51.098;6.414;2022-12-20T14:39:59;10.30;;;2.90;;
3052;SDS011;1536;51.098;6.414;2022-12-20T14:42:28;5.20;;;2.90;;
3052;SDS011;1536;51.098;6.414;2022-12-20T14:45:03;3.27;;;2.37;;
3052;SDS011;1536;51.098;6.414;2022-12-20T14:47:32;9.40;;;5.00;;
3052;SDS011;1536;51.098;6.414;2022-12-20T14:50:00;11.20;;;5.47;;
3052;SDS011;1536;51.098;6.414;2022-12-20T14:52:29;6.80;;;4.53;;
3052;SDS011;1536;51.098;6.414;2022-12-20T14:55:01;5.97;;;3.73;;
3052;SDS011;1536;51.098;6.414;2022-12-20T14:57:36;11.70;;;3.10;;
3052;SDS011;1536;51.098;6.414;2022-12-20T15:00:09;6.57;;;3.55;;
3052;SDS011;1536;51.098;6.414;2022-12-20T15:02:40;4.10;;;3.27;;
3052;SDS011;1536;51.098;6.414;2022-12-20T15:05:08;8.93;;;3.37;;
3052;SDS011;1536;51.098;6.414;2022-12-20T15:08:11;7.37;;;3.70;;
3052;SDS011;1536;51.098;6.414;2022-12-20T15:10:40;3.97;;;3.00;;
3052;SDS011;1536;51.098;6.414;2022-12-20T15:13:10;5.45;;;3.05;;
3052;SDS011;1536;51.098;6.414;2022-12-20T15:15:39;3.73;;;3.30;;
3052;SDS011;1536;51.098;6.414;2022-12-20T15:18:09;5.00;;;4.20;;
3052;SDS011;1536;51.098;6.414;2022-12-20T15:20:37;4.93;;;3.40;;
3052;SDS011;1536;51.098;6.414;2022-12-20T15:23:09;4.23;;;3.03;;
3052;SDS011;1536;51.098;6.414;2022-12-20T15:25:41;4.60;;;2.90;;
3052;SDS011;1536;51.098;6.414;2022-12-20T15:28:13;3.60;;;3.10;;
3052;SDS011;1536;51.098;6.414;2022-12-20T15:30:42;11.90;;;3.90;;
3052;SDS011;1536;51.098;6.414;2022-12-20T15:33:12;10.33;;;3.00;;
3052;SDS011;1536;51.098;6.414;2022-12-20T15:35:42;7.00;;;2.63;;
3052;SDS011;1536;51.098;6.414;2022-12-20T15:38:13;6.33;;;2.93;;
3052;SDS011;1536;51.098;6.414;2022-12-20T15:40:43;8.00;;;3.50;;
3052;SDS011;1536;51.098;6.414;2022-12-20T15:43:14;4.50;;;2.88;;
3052;SDS011;1536;51.098;6.414;2022-12-20T15:45:47;7.53;;;5.93;;
3052;SDS011;1536;51.098;6.414;2022-12-20T15:48:17;5.10;;;3.80;;
3052;SDS011;1536;51.098;6.414;2022-12-20T15:50:49;6.00;;;3.33;;
3052;SDS011;1536;51.098;6.414;2022-12-20T15:53:19;6.78;;;3.35;;
3052;SDS011;1536;51.098;6.414;2022-12-20T15:55:50;5.80;;;3.50;;
3052;SDS011;1536;51.098;6.414;2022-12-20T15:58:18;6.05;;;3.53;;
3052;SDS011;1536;51.098;6.414;2022-12-20T16:00:44;6.57;;;4.13;;
3052;SDS011;1536;51.098;6.414;2022-12-20T16:03:15;10.30;;;3.60;;
3052;SDS011;1536;51.098;6.414;2022-12-20T16:05:43;5.27;;;4.00;;
3052;SDS011;1536;51.098;6.414;2022-12-20T16:08:11;5.25;;;3.38;;